createdAt,value
2022-11-08T00:02:59.368Z,10.60
2022-11-08T00:08:22.247Z,10.60
2022-11-08T00:13:42.629Z,10.50
2022-11-08T00:18:44.281Z,10.50
2022-11-08T00:23:47.114Z,10.50
2022-11-08T00:28:48.805Z,10.50
2022-11-08T00:33:50.434Z,10.50
2022-11-08T00:38:52.151Z,10.40
2022-11-08T00:43:53.795Z,10.30
2022-11-08T00:48:55.441Z,10.30
2022-11-08T00:53:57.678Z,10.30
2022-11-08T00:59:00.179Z,10.40
2022-11-08T01:04:01.821Z,10.40
2022-11-08T01:09:04.839Z,10.30
2022-11-08T01:14:06.657Z,10.20
2022-11-08T01:19:08.723Z,10.00
2022-11-08T01:24:10.350Z,10.00
2022-11-08T01:29:11.993Z,10.00
2022-11-08T01:34:13.628Z,10.00
2022-11-08T01:39:16.270Z,10.00
2022-11-08T01:44:19.036Z,10.00
2022-11-08T01:49:32.349Z,9.90
2022-11-08T01:54:59.136Z,9.90
2022-11-08T02:00:05.133Z,9.80
2022-11-08T02:05:24.702Z,9.90
2022-11-08T02:10:32.563Z,9.90
2022-11-08T02:15:34.419Z,10.00
2022-11-08T02:20:36.296Z,10.00
2022-11-08T02:25:38.011Z,9.90
2022-11-08T02:30:39.632Z,9.80
2022-11-08T02:35:42.083Z,9.80
2022-11-08T02:40:49.061Z,9.80
2022-11-08T02:45:51.895Z,9.70
2022-11-08T02:50:53.554Z,9.80
2022-11-08T02:55:55.465Z,9.80
2022-11-08T03:00:57.231Z,9.80
2022-11-08T03:05:59.017Z,9.80
2022-11-08T03:11:01.049Z,9.80
2022-11-08T03:16:04.251Z,9.80
2022-11-08T03:21:06.197Z,9.80
2022-11-08T03:26:07.870Z,9.80
2022-11-08T03:31:09.549Z,9.80
2022-11-08T03:36:11.184Z,9.70
2022-11-08T03:41:12.838Z,9.70
2022-11-08T03:46:14.475Z,9.60
2022-11-08T03:51:16.236Z,9.50
2022-11-08T03:56:18.026Z,9.40
2022-11-08T04:01:19.788Z,9.40
2022-11-08T04:06:21.474Z,9.30
2022-11-08T04:11:41.526Z,9.20
2022-11-08T04:16:43.222Z,9.10
2022-11-08T04:21:50.324Z,9.20
2022-11-08T04:26:51.930Z,9.30
2022-11-08T04:31:53.609Z,9.30
2022-11-08T04:36:55.204Z,9.30
2022-11-08T04:42:01.898Z,9.30
2022-11-08T04:47:04.179Z,9.20
2022-11-08T04:52:05.817Z,9.20
2022-11-08T04:57:07.460Z,9.10
2022-11-08T05:02:09.311Z,9.10
2022-11-08T05:07:11.103Z,9.10
2022-11-08T05:12:12.741Z,9.10
2022-11-08T05:17:14.645Z,9.20
2022-11-08T05:22:34.774Z,9.20
2022-11-08T05:27:36.449Z,9.30
2022-11-08T05:32:38.188Z,9.30
2022-11-08T05:37:42.061Z,9.30
2022-11-08T05:42:43.696Z,9.30
2022-11-08T05:47:45.841Z,9.20
2022-11-08T05:52:47.543Z,9.20
2022-11-08T05:57:49.276Z,9.30
2022-11-08T06:02:51.048Z,9.20
2022-11-08T06:07:55.789Z,9.20
2022-11-08T06:13:01.080Z,9.20
2022-11-08T06:18:04.711Z,9.30
2022-11-08T06:23:06.441Z,9.30
2022-11-08T06:28:08.044Z,9.20
2022-11-08T06:33:10.123Z,9.20
2022-11-08T06:38:12.096Z,9.10
2022-11-08T06:43:19.382Z,9.10
2022-11-08T06:48:21.627Z,9.20
2022-11-08T06:53:23.263Z,9.30
2022-11-08T06:58:24.907Z,9.30
2022-11-08T07:03:26.546Z,9.30
2022-11-08T07:08:28.346Z,9.40
2022-11-08T07:13:30.303Z,9.50
2022-11-08T07:18:32.074Z,9.50
2022-11-08T07:23:33.824Z,9.50
2022-11-08T07:28:35.636Z,9.70
2022-11-08T07:33:37.238Z,9.80
2022-11-08T07:38:38.844Z,9.90
2022-11-08T07:43:40.522Z,10.00
2022-11-08T07:48:42.199Z,10.10
2022-11-08T07:53:44.802Z,10.20
2022-11-08T07:58:46.463Z,10.30
2022-11-08T08:03:49.256Z,10.40
2022-11-08T08:08:50.983Z,10.40
2022-11-08T08:13:52.743Z,10.40
2022-11-08T08:18:56.633Z,10.60
2022-11-08T08:23:58.556Z,10.70
2022-11-08T08:29:00.361Z,10.80
2022-11-08T08:34:01.978Z,10.90
2022-11-08T08:39:03.788Z,11.00
2022-11-08T08:44:06.063Z,11.20
2022-11-08T08:49:07.713Z,11.40
2022-11-08T08:54:09.521Z,11.60
2022-11-08T09:04:32.930Z,11.90
2022-11-08T09:09:34.617Z,11.90
2022-11-08T09:14:36.338Z,12.10
2022-11-08T09:19:37.980Z,12.30
2022-11-08T09:24:39.703Z,12.50
2022-11-08T09:29:41.356Z,12.70
2022-11-08T09:34:43.025Z,12.90
2022-11-08T09:39:44.711Z,13.00
2022-11-08T09:44:58.486Z,13.10
2022-11-08T09:50:03.185Z,13.00
2022-11-08T09:55:42.577Z,13.00
2022-11-08T10:00:45.171Z,12.80
2022-11-08T10:06:28.130Z,12.80
2022-11-08T10:12:03.046Z,12.80
2022-11-08T10:17:34.905Z,12.80
2022-11-08T10:22:50.481Z,13.10
2022-11-08T10:27:56.408Z,13.50
2022-11-08T10:32:58.135Z,13.90
2022-11-08T10:38:01.726Z,14.20
2022-11-08T10:43:12.100Z,14.40
2022-11-08T10:48:13.874Z,14.60
2022-11-08T10:53:28.836Z,14.80
2022-11-08T10:58:35.167Z,14.80
2022-11-08T11:03:36.792Z,14.70
2022-11-08T11:08:53.862Z,14.70
2022-11-08T11:14:16.626Z,14.60
2022-11-08T11:19:28.463Z,14.70
2022-11-08T11:24:30.836Z,14.70
2022-11-08T11:29:37.395Z,14.70
2022-11-08T11:35:07.345Z,14.70
2022-11-08T11:40:24.480Z,14.60
2022-11-08T11:45:43.468Z,14.70
2022-11-08T11:50:46.954Z,14.80
2022-11-08T11:56:31.190Z,14.70
2022-11-08T12:02:18.148Z,14.90
2022-11-08T12:07:32.951Z,14.90
2022-11-08T12:13:03.799Z,15.00
2022-11-08T12:18:42.686Z,15.10
2022-11-08T12:24:15.423Z,15.20
2022-11-08T12:29:27.026Z,15.20
2022-11-08T12:34:52.647Z,15.20
2022-11-08T12:40:11.985Z,15.30
2022-11-08T12:45:34.107Z,15.40
2022-11-08T12:51:10.300Z,15.40
2022-11-08T12:56:17.467Z,15.40
2022-11-08T13:01:21.642Z,15.50
2022-11-08T13:06:41.752Z,15.60
2022-11-08T13:12:01.193Z,15.60
2022-11-08T13:17:08.681Z,15.80
2022-11-08T13:22:31.060Z,16.00
2022-11-08T13:27:37.244Z,16.10
2022-11-08T13:33:00.763Z,16.30
2022-11-08T13:38:24.183Z,16.20
2022-11-08T13:43:30.940Z,16.40
2022-11-08T13:48:37.536Z,16.50
2022-11-08T13:53:47.208Z,16.50
2022-11-08T13:58:48.869Z,16.40
2022-11-08T14:03:50.541Z,16.50
2022-11-08T14:09:29.266Z,16.50
2022-11-08T14:14:44.479Z,16.70
2022-11-08T14:19:47.154Z,16.50
2022-11-08T14:24:51.161Z,16.20
2022-11-08T14:30:00.283Z,16.10
2022-11-08T14:35:21.466Z,15.90
2022-11-08T14:40:30.083Z,15.70
2022-11-08T14:45:31.719Z,15.50
2022-11-08T14:50:35.145Z,15.30
2022-11-08T14:55:37.453Z,15.20
2022-11-08T15:00:42.864Z,15.10
2022-11-08T15:05:59.229Z,14.90
2022-11-08T15:11:04.215Z,14.90
2022-11-08T15:16:07.848Z,14.70
2022-11-08T15:21:13.531Z,14.50
2022-11-08T15:26:25.805Z,14.40
2022-11-08T15:31:31.949Z,14.30
2022-11-08T15:36:36.633Z,14.10
2022-11-08T15:41:41.640Z,13.90
2022-11-08T15:46:43.997Z,13.80
2022-11-08T15:51:49.996Z,13.70
2022-11-08T15:56:54.165Z,13.60
2022-11-08T16:02:00.773Z,13.60
2022-11-08T16:07:02.581Z,13.60
2022-11-08T16:12:04.736Z,13.40
2022-11-08T16:17:10.661Z,13.30
2022-11-08T16:22:16.802Z,13.20
2022-11-08T16:27:20.677Z,13.10
2022-11-08T16:32:22.303Z,13.10
2022-11-08T16:37:23.996Z,12.90
2022-11-08T16:42:25.627Z,13.00
2022-11-08T16:47:27.352Z,12.90
2022-11-08T16:52:29.096Z,12.80
2022-11-08T16:57:35.239Z,12.70
2022-11-08T17:02:40.636Z,12.60
2022-11-08T17:07:42.395Z,12.40
2022-11-08T17:12:44.089Z,12.50
2022-11-08T17:17:46.647Z,12.70
2022-11-08T17:22:49.810Z,12.70
2022-11-08T17:27:52.728Z,12.90
2022-11-08T17:32:54.670Z,12.80
2022-11-08T17:37:56.413Z,12.90
2022-11-08T17:42:58.273Z,12.80
2022-11-08T17:47:59.919Z,12.90
2022-11-08T17:53:01.608Z,12.90
2022-11-08T17:58:03.271Z,12.90
2022-11-08T18:03:11.697Z,13.00
2022-11-08T18:08:14.553Z,13.00
2022-11-08T18:13:17.160Z,13.00
2022-11-08T18:18:19.558Z,13.10
2022-11-08T18:23:22.004Z,13.10
2022-11-08T18:28:25.203Z,13.00
2022-11-08T18:33:27.117Z,12.90
2022-11-08T18:38:28.767Z,13.00
2022-11-08T18:43:30.789Z,12.90
2022-11-08T18:48:35.600Z,13.00
2022-11-08T18:53:37.801Z,13.10
2022-11-08T18:58:39.792Z,13.10
2022-11-08T19:03:42.195Z,13.10
2022-11-08T19:08:43.842Z,13.20
2022-11-08T19:13:45.481Z,13.20
2022-11-08T19:18:49.264Z,13.20
2022-11-08T19:23:51.733Z,13.40
2022-11-08T19:28:57.425Z,13.40
2022-11-08T19:33:59.123Z,13.50
2022-11-08T19:39:00.745Z,13.50
2022-11-08T19:44:03.597Z,13.50
2022-11-08T19:49:05.479Z,13.50
2022-11-08T19:54:14.986Z,13.50
2022-11-08T19:59:17.416Z,13.50
2022-11-08T20:04:19.173Z,13.60
2022-11-08T20:09:21.907Z,13.60
2022-11-08T20:14:25.296Z,13.50
2022-11-08T20:19:26.988Z,13.50
2022-11-08T20:24:28.652Z,13.50
2022-11-08T20:29:30.390Z,13.60
2022-11-08T20:34:32.387Z,13.60
2022-11-08T20:39:34.119Z,13.50
2022-11-08T20:44:35.902Z,13.50
2022-11-08T20:49:37.964Z,13.50
2022-11-08T20:54:43.723Z,13.50
2022-11-08T20:59:45.901Z,13.50
2022-11-08T21:04:47.673Z,13.40
2022-11-08T21:09:51.761Z,13.40
2022-11-08T21:14:57.652Z,13.20
2022-11-08T21:19:59.402Z,13.30
2022-11-08T21:25:01.040Z,13.30
2022-11-08T21:30:03.660Z,13.30
2022-11-08T21:35:05.716Z,13.30
2022-11-08T21:40:08.109Z,13.40
2022-11-08T21:45:10.257Z,13.40
2022-11-08T21:50:11.933Z,13.40
2022-11-08T21:55:14.378Z,13.40
2022-11-08T22:00:16.516Z,13.30
2022-11-08T22:05:18.753Z,13.30
2022-11-08T22:10:20.485Z,13.20
2022-11-08T22:15:25.584Z,13.20
2022-11-08T22:20:28.134Z,13.10
2022-11-08T22:25:29.939Z,13.10
2022-11-08T22:30:31.646Z,13.10
2022-11-08T22:35:33.378Z,13.10
2022-11-08T22:40:35.087Z,13.00
2022-11-08T22:45:41.195Z,13.00
2022-11-08T22:50:42.996Z,13.00
2022-11-08T22:55:45.256Z,13.00
2022-11-08T23:00:47.052Z,12.80
2022-11-08T23:05:56.629Z,12.90
2022-11-08T23:11:20.511Z,12.90
2022-11-08T23:16:32.309Z,12.90
2022-11-08T23:22:05.748Z,12.90
2022-11-08T23:27:26.131Z,12.90
2022-11-08T23:32:28.287Z,12.90
2022-11-08T23:37:30.009Z,12.80
2022-11-08T23:42:50.564Z,12.70
2022-11-08T23:47:53.180Z,12.70
2022-11-08T23:52:54.811Z,12.70
2022-11-08T23:57:56.444Z,12.70
